Time;durP1;ratioP1;P1;durP2;ratioP2;P2;SDS_P1;SDS_P2;PMS_P1;PMS_P2;Temp;Humidity;BMP_temperature;BMP_pressure;BME280_temperature;BME280_humidity;BME280_pressure;Samples;Min_cycle;Max_cycle;Signal;HPM_P1;HPM_P2
2022/04/12 00:00:27;;;;;;;6.50;4.78;;;8.00;48.50;;;;;;5053912;28;20113;-72
2022/04/12 00:02:52;;;;;;;7.35;5.15;;;8.00;49.00;;;;;;5053167;28;20539;-71
2022/04/12 00:05:18;;;;;;;7.50;4.90;;;7.90;49.60;;;;;;5053434;28;20164;-72
2022/04/12 00:07:44;;;;;;;9.02;5.45;;;8.00;49.20;;;;;;5053381;28;20032;-72
2022/04/12 00:10:12;;;;;;;7.97;5.90;;;7.90;47.70;;;;;;5052844;28;20891;-72
2022/04/12 00:12:38;;;;;;;7.60;4.97;;;7.90;48.40;;;;;;5053768;28;20047;-72
2022/04/12 00:15:06;;;;;;;7.55;5.32;;;7.80;48.40;;;;;;5052864;28;20466;-71
2022/04/12 00:20:16;;;;;;;8.05;5.30;;;7.80;49.70;;;;;;5053622;28;20091;-72
2022/04/12 00:22:42;;;;;;;8.73;5.20;;;7.80;48.70;;;;;;5052934;28;20025;-72
2022/04/12 00:25:09;;;;;;;8.25;5.47;;;7.70;49.00;;;;;;5052613;28;20037;-72
2022/04/12 00:27:40;;;;;;;7.55;5.63;;;7.70;50.20;;;;;;5053423;28;20060;-72
2022/04/12 00:30:09;;;;;;;11.13;5.78;;;7.70;49.20;;;;;;5053024;28;20458;-72
2022/04/12 00:32:35;;;;;;;8.05;4.95;;;7.70;49.30;;;;;;5052159;28;20417;-73
2022/04/12 00:35:02;;;;;;;8.52;5.28;;;7.60;49.20;;;;;;5052273;28;20060;-74
2022/04/12 00:37:28;;;;;;;8.18;5.28;;;7.60;49.10;;;;;;5053304;28;20037;-72
2022/04/12 00:39:54;;;;;;;7.78;5.15;;;7.60;48.90;;;;;;5052515;28;20021;-72
2022/04/12 00:42:20;;;;;;;7.15;5.32;;;7.60;49.10;;;;;;5053167;28;20434;-71
2022/04/12 00:44:46;;;;;;;8.73;5.93;;;7.60;49.60;;;;;;5053013;28;20029;-73
2022/04/12 00:47:13;;;;;;;9.10;5.47;;;7.60;49.50;;;;;;5052654;28;20032;-73
2022/04/12 00:49:39;;;;;;;6.85;5.68;;;7.50;49.40;;;;;;5052905;28;20100;-73
2022/04/12 00:52:06;;;;;;;7.20;5.53;;;7.60;49.60;;;;;;5051961;28;20386;-72
2022/04/12 00:54:34;;;;;;;8.10;5.32;;;7.50;49.20;;;;;;5052842;28;20116;-72
2022/04/12 00:57:00;;;;;;;9.48;5.70;;;7.50;49.60;;;;;;5051723;28;20507;-73
2022/04/12 00:59:26;;;;;;;10.15;5.97;;;7.50;49.80;;;;;;5053132;28;20025;-72
2022/04/12 01:01:52;;;;;;;9.18;6.22;;;7.50;49.70;;;;;;5052406;28;20036;-72
2022/04/12 01:04:19;;;;;;;8.55;5.10;;;7.50;49.60;;;;;;5052289;28;20033;-72
2022/04/12 01:06:45;;;;;;;9.32;5.82;;;7.50;49.40;;;;;;5052271;28;20470;-73
2022/04/12 01:09:12;;;;;;;7.30;5.50;;;7.50;49.80;;;;;;5052098;28;20242;-73
2022/04/12 01:11:39;;;;;;;13.05;6.15;;;7.50;49.80;;;;;;5052208;28;20466;-72
2022/04/12 01:14:06;;;;;;;9.07;5.60;;;7.50;50.00;;;;;;5051890;28;20036;-73
2022/04/12 01:16:32;;;;;;;7.85;5.80;;;7.50;50.30;;;;;;5052392;28;20060;-73
2022/04/12 01:19:17;;;;;;;9.23;5.85;;;7.50;50.20;;;;;;5051858;28;20458;-72
2022/04/12 01:21:42;;;;;;;9.40;5.80;;;7.40;50.10;;;;;;5052379;28;20025;-73
2022/04/12 01:24:08;;;;;;;7.85;6.00;;;7.40;50.50;;;;;;5051774;28;20021;-73
2022/04/12 01:26:34;;;;;;;8.57;6.13;;;7.40;50.60;;;;;;5052350;28;20033;-73
2022/04/12 01:28:59;;;;;;;10.05;6.10;;;7.30;50.80;;;;;;5051968;28;20024;-72
2022/04/12 01:31:26;;;;;;;11.57;5.88;;;7.30;50.90;;;;;;5052061;28;20028;-72
2022/04/12 01:33:53;;;;;;;9.27;6.10;;;7.30;50.90;;;;;;5050897;28;20025;-72
2022/04/12 01:36:19;;;;;;;9.52;6.40;;;7.30;51.20;;;;;;5051315;28;20087;-72
2022/04/12 01:38:45;;;;;;;11.52;5.97;;;7.30;51.50;;;;;;5052222;28;20347;-72
2022/04/12 01:41:11;;;;;;;9.75;5.90;;;7.30;51.40;;;;;;5051522;28;20028;-72
2022/04/12 01:43:36;;;;;;;8.52;5.70;;;7.30;51.70;;;;;;5051776;28;20108;-73
2022/04/12 01:46:02;;;;;;;11.43;6.47;;;7.30;52.00;;;;;;5051532;28;20036;-73
2022/04/12 01:48:28;;;;;;;11.43;6.05;;;7.30;52.00;;;;;;5052294;28;20100;-73
2022/04/12 01:50:53;;;;;;;9.27;5.82;;;7.20;52.30;;;;;;5051931;28;20021;-73
2022/04/12 01:53:19;;;;;;;10.20;6.18;;;7.20;52.50;;;;;;5051254;28;20020;-73
2022/04/12 01:55:45;;;;;;;9.25;5.40;;;7.20;52.20;;;;;;5051449;28;20033;-73
2022/04/12 01:58:11;;;;;;;6.97;4.78;;;7.20;52.40;;;;;;5049971;28;20037;-73
2022/04/12 02:00:37;;;;;;;8.73;5.65;;;7.20;52.40;;;;;;5052143;28;20112;-73
2022/04/12 02:03:04;;;;;;;9.13;5.90;;;7.20;52.60;;;;;;5051496;28;20124;-72
2022/04/12 02:05:30;;;;;;;10.32;6.00;;;7.10;52.70;;;;;;5051779;28;20456;-71
2022/04/12 02:07:55;;;;;;;10.40;5.78;;;7.10;52.70;;;;;;5051816;28;20060;-72
2022/04/12 02:10:22;;;;;;;9.52;5.78;;;7.10;52.90;;;;;;5051092;28;20021;-72
2022/04/12 02:12:49;;;;;;;9.52;4.85;;;7.00;52.70;;;;;;5051676;28;20098;-73
2022/04/12 02:15:15;;;;;;;9.13;5.43;;;7.00;53.20;;;;;;5051063;28;20116;-73
2022/04/12 02:17:41;;;;;;;9.68;5.95;;;7.00;53.00;;;;;;5051107;28;20036;-72
2022/04/12 02:20:08;;;;;;;12.95;6.00;;;7.00;53.50;;;;;;5049801;28;20033;-73
2022/04/12 02:22:34;;;;;;;11.13;5.55;;;7.00;53.70;;;;;;5051898;28;20029;-72
2022/04/12 02:25:00;;;;;;;9.00;5.55;;;7.00;53.70;;;;;;5050308;28;20032;-73
2022/04/12 02:27:25;;;;;;;9.50;6.18;;;7.00;54.10;;;;;;5050004;28;20038;-72
2022/04/12 02:29:51;;;;;;;9.65;6.03;;;7.00;54.20;;;;;;5051531;28;20031;-72
2022/04/12 02:32:18;;;;;;;11.55;6.50;;;7.00;54.70;;;;;;5050972;28;20064;-73
2022/04/12 02:34:44;;;;;;;10.82;6.22;;;7.00;54.60;;;;;;5051562;28;20488;-72
2022/04/12 02:37:09;;;;;;;12.35;5.63;;;7.00;54.50;;;;;;5050867;28;20041;-72
2022/04/12 02:39:35;;;;;;;11.13;5.93;;;6.90;54.40;;;;;;5050511;28;20029;-74
2022/04/12 02:42:01;;;;;;;15.10;6.28;;;6.90;54.90;;;;;;5051497;28;20025;-72
2022/04/12 02:44:27;;;;;;;10.60;5.57;;;6.80;54.80;;;;;;5051464;28;20029;-72
2022/04/12 02:46:53;;;;;;;11.90;6.43;;;6.80;55.30;;;;;;5051276;28;20036;-73
2022/04/12 02:49:19;;;;;;;15.48;6.05;;;6.80;55.60;;;;;;5050837;28;20408;-72
2022/04/12 02:51:50;;;;;;;9.00;5.90;;;6.90;55.60;;;;;;5051297;28;20036;-72
2022/04/12 02:54:15;;;;;;;12.27;6.00;;;6.80;55.30;;;;;;5049742;28;20056;-72
2022/04/12 02:56:41;;;;;;;12.55;7.03;;;6.80;56.00;;;;;;5049818;28;20514;-73
2022/04/12 02:59:07;;;;;;;10.75;6.50;;;6.80;56.30;;;;;;5050456;28;20033;-72
2022/04/12 03:01:34;;;;;;;14.70;6.30;;;6.80;56.30;;;;;;5050315;28;20036;-72
2022/04/12 03:04:00;;;;;;;11.30;6.07;;;6.70;56.60;;;;;;5051082;28;20170;-73
2022/04/12 03:06:25;;;;;;;9.13;6.05;;;6.70;56.60;;;;;;5054232;28;20060;-72
2022/04/12 03:08:51;;;;;;;11.93;6.57;;;6.70;56.70;;;;;;5055091;28;20024;-72
2022/04/12 03:11:16;;;;;;;11.32;6.40;;;6.70;56.90;;;;;;5054260;28;20037;-72
2022/04/12 03:13:42;;;;;;;9.43;6.47;;;6.70;57.20;;;;;;5055044;28;20465;-72
2022/04/12 03:16:08;;;;;;;9.77;6.35;;;6.60;57.40;;;;;;5053859;28;20025;-71
2022/04/12 03:18:52;;;;;;;9.02;6.03;;;6.60;57.70;;;;;;5054601;28;20032;-73
2022/04/12 03:21:36;;;;;;;9.90;6.18;;;6.60;57.90;;;;;;5054075;28;20029;-72
2022/04/12 03:24:02;;;;;;;10.30;6.63;;;6.50;57.90;;;;;;5054591;28;20028;-72
2022/04/12 03:26:27;;;;;;;10.18;6.45;;;6.50;58.00;;;;;;5053900;28;20029;-72
2022/04/12 03:28:53;;;;;;;9.43;6.10;;;6.50;58.20;;;;;;5054363;28;20475;-72
2022/04/12 03:31:19;;;;;;;11.13;7.05;;;6.50;58.50;;;;;;5053470;28;20017;-71
2022/04/12 03:33:46;;;;;;;14.60;6.78;;;6.40;58.50;;;;;;5054394;28;20033;-72
2022/04/12 03:36:12;;;;;;;10.18;6.18;;;6.40;58.60;;;;;;5053670;28;20021;-73
2022/04/12 03:38:47;;;;;;;11.73;6.75;;;6.40;58.50;;;;;;5054331;28;20036;-72
2022/04/12 03:41:12;;;;;;;13.48;6.65;;;6.40;58.30;;;;;;5053693;28;20037;-72
2022/04/12 03:43:38;;;;;;;11.55;6.60;;;6.30;58.30;;;;;;5054111;28;20071;-73
2022/04/12 03:46:04;;;;;;;15.60;7.28;;;6.30;58.30;;;;;;5054140;28;20060;-72
2022/04/12 03:48:30;;;;;;;9.63;6.75;;;6.30;58.50;;;;;;5053560;28;20044;-73
2022/04/12 03:50:55;;;;;;;13.05;7.00;;;6.30;59.10;;;;;;5054035;28;20112;-73
2022/04/12 03:53:21;;;;;;;9.77;7.18;;;6.20;59.00;;;;;;5053364;28;20088;-73
2022/04/12 03:55:46;;;;;;;12.55;6.80;;;6.30;59.00;;;;;;5053520;28;20031;-71
2022/04/12 03:58:12;;;;;;;12.35;7.90;;;6.30;59.00;;;;;;5053334;28;20037;-72
2022/04/12 04:00:38;;;;;;;11.52;7.28;;;6.30;59.00;;;;;;5053982;28;20315;-73
2022/04/12 04:03:04;;;;;;;18.58;8.07;;;6.30;58.70;;;;;;5053783;28;20112;-72
2022/04/12 04:05:29;;;;;;;12.18;7.60;;;6.30;58.90;;;;;;5052937;28;20025;-71
2022/04/12 04:07:55;;;;;;;12.85;7.07;;;6.20;59.20;;;;;;5054058;28;20032;-71
2022/04/12 04:10:21;;;;;;;12.52;7.43;;;6.20;58.50;;;;;;5052997;28;20374;-72
2022/04/12 04:12:47;;;;;;;12.38;7.40;;;6.20;58.10;;;;;;5053672;28;20502;-72
2022/04/12 04:15:14;;;;;;;10.75;7.20;;;6.20;57.40;;;;;;5052539;28;20032;-73
2022/04/12 04:17:44;;;;;;;12.57;7.18;;;6.30;58.20;;;;;;5049952;28;20126;-72
2022/04/12 04:20:11;;;;;;;15.18;7.93;;;6.30;58.20;;;;;;5051317;28;20021;-72
2022/04/12 04:22:37;;;;;;;16.98;7.50;;;6.40;57.90;;;;;;5053299;28;20579;-71
2022/04/12 04:25:03;;;;;;;14.32;7.35;;;6.40;57.50;;;;;;5053015;28;20033;-73
2022/04/12 04:27:29;;;;;;;12.63;7.97;;;6.40;56.50;;;;;;5052630;28;20033;-72
2022/04/12 04:29:57;;;;;;;13.13;7.60;;;6.50;57.30;;;;;;5052688;28;20087;-72
2022/04/12 04:32:23;;;;;;;14.02;8.00;;;6.50;55.40;;;;;;5052576;28;20021;-72
2022/04/12 04:34:49;;;;;;;14.70;7.70;;;6.40;55.10;;;;;;5052972;28;20346;-72
2022/04/12 04:37:15;;;;;;;18.30;8.65;;;6.50;55.50;;;;;;5052509;28;20045;-74
2022/04/12 04:39:43;;;;;;;17.00;8.00;;;6.60;55.80;;;;;;5052821;28;20025;-73
2022/04/12 04:42:09;;;;;;;21.73;8.45;;;6.60;56.20;;;;;;5052639;28;20032;-73
2022/04/12 04:44:35;;;;;;;16.08;8.23;;;6.60;55.30;;;;;;5052562;28;20025;-72
2022/04/12 04:47:01;;;;;;;14.45;8.10;;;6.60;55.90;;;;;;5052977;28;20473;-73
2022/04/12 04:49:26;;;;;;;12.35;7.82;;;6.70;55.60;;;;;;5052337;28;20057;-72
2022/04/12 04:51:52;;;;;;;17.27;8.82;;;6.70;56.20;;;;;;5052846;28;20351;-72
2022/04/12 04:54:18;;;;;;;15.85;8.52;;;6.70;54.40;;;;;;5051921;28;20491;-72
2022/04/12 04:56:43;;;;;;;12.05;8.10;;;6.70;55.00;;;;;;5052644;28;20041;-73
2022/04/12 04:59:13;;;;;;;12.73;8.05;;;6.80;56.00;;;;;;5052531;28;20051;-72
2022/04/12 05:01:39;;;;;;;13.23;8.35;;;6.80;55.30;;;;;;5051631;28;20021;-72
2022/04/12 05:04:05;;;;;;;13.70;8.40;;;6.80;55.30;;;;;;5051321;28;20488;-72
2022/04/12 05:06:31;;;;;;;14.98;8.95;;;6.80;56.00;;;;;;5052236;28;20223;-72
2022/04/12 05:08:57;;;;;;;17.83;8.00;;;6.90;55.80;;;;;;5052741;28;20021;-72
2022/04/12 05:11:22;;;;;;;18.15;9.45;;;6.90;55.50;;;;;;5051706;28;20358;-73
2022/04/12 05:13:48;;;;;;;16.50;8.35;;;6.90;55.50;;;;;;5052604;28;20079;-74
2022/04/12 05:16:14;;;;;;;17.27;8.98;;;6.90;55.80;;;;;;5051205;28;20025;-72
2022/04/12 05:18:39;;;;;;;19.20;8.68;;;6.90;55.90;;;;;;5052258;28;20025;-72
2022/04/12 05:21:05;;;;;;;13.27;9.18;;;7.00;56.10;;;;;;5052073;28;20021;-72
2022/04/12 05:23:31;;;;;;;15.80;8.15;;;7.00;56.50;;;;;;5051627;28;20025;-72
2022/04/12 05:25:56;;;;;;;14.30;9.10;;;7.00;56.20;;;;;;5051588;28;20454;-71
2022/04/12 05:28:22;;;;;;;15.45;8.38;;;7.00;56.40;;;;;;5050878;28;20028;-71
2022/04/12 05:30:48;;;;;;;16.80;9.45;;;7.10;56.10;;;;;;5052010;28;20075;-71
2022/04/12 05:33:14;;;;;;;15.88;8.95;;;7.10;56.40;;;;;;5051323;28;20410;-72
2022/04/12 05:35:40;;;;;;;18.40;9.32;;;7.10;56.00;;;;;;5052152;28;20025;-71
2022/04/12 05:38:06;;;;;;;20.92;9.15;;;7.10;56.00;;;;;;5051971;28;20033;-70
2022/04/12 05:40:33;;;;;;;21.92;8.48;;;7.20;56.50;;;;;;5051462;28;20025;-71
2022/04/12 05:42:59;;;;;;;13.80;8.52;;;7.20;56.70;;;;;;5052131;28;20033;-71
2022/04/12 05:45:24;;;;;;;17.02;9.63;;;7.30;57.00;;;;;;5051502;28;20029;-71
2022/04/12 05:47:52;;;;;;;19.25;9.40;;;7.40;56.90;;;;;;5051795;28;20052;-71
2022/04/12 05:50:20;;;;;;;15.32;9.00;;;7.40;55.90;;;;;;5051127;28;20033;-71
2022/04/12 05:52:46;;;;;;;14.45;8.10;;;7.40;54.90;;;;;;5052082;28;20037;-71
2022/04/12 05:55:17;;;;;;;15.80;8.80;;;7.50;54.70;;;;;;5051674;28;20036;-72
2022/04/12 05:57:59;;;;;;;19.23;9.13;;;7.60;55.50;;;;;;5052122;28;20132;-72
2022/04/12 06:00:34;;;;;;;14.23;8.85;;;7.60;55.50;;;;;;5051126;28;20048;-72
2022/04/12 06:03:02;;;;;;;15.18;9.45;;;7.80;55.90;;;;;;5051874;28;20025;-71
2022/04/12 06:05:30;;;;;;;13.20;8.27;;;8.00;55.30;;;;;;5051061;28;20040;-72
2022/04/12 06:07:56;;;;;;;15.18;8.80;;;8.20;54.00;;;;;;5051565;28;20062;-71
2022/04/12 06:10:22;;;;;;;14.55;8.57;;;8.40;54.00;;;;;;5051151;28;20056;-71
2022/04/12 06:12:50;;;;;;;12.30;8.55;;;8.60;53.20;;;;;;5051440;28;20102;-72
2022/04/12 06:15:16;;;;;;;12.27;8.45;;;8.90;52.20;;;;;;5050926;28;20025;-70
2022/04/12 06:17:42;;;;;;;13.45;8.30;;;9.10;51.60;;;;;;5051662;28;20083;-71
2022/04/12 06:20:10;;;;;;;13.60;8.27;;;9.40;49.30;;;;;;5051646;28;20037;-72
2022/04/12 06:22:37;;;;;;;14.10;8.68;;;9.60;49.40;;;;;;5051041;28;20029;-72
2022/04/12 06:25:04;;;;;;;13.98;8.05;;;9.90;48.70;;;;;;5051449;28;20028;-71
2022/04/12 06:27:34;;;;;;;12.07;8.05;;;10.20;48.90;;;;;;5050710;28;20056;-71
2022/04/12 06:30:15;;;;;;;11.65;7.80;;;10.40;47.40;;;;;;5051082;28;20041;-71
2022/04/12 06:32:42;;;;;;;11.38;7.18;;;10.70;45.20;;;;;;5051201;28;20450;-72
2022/04/12 06:35:09;;;;;;;12.93;8.30;;;10.70;44.20;;;;;;5051599;28;20093;-71
2022/04/12 06:37:35;;;;;;;11.38;8.10;;;10.90;44.10;;;;;;5050576;28;20032;-72
2022/04/12 06:40:02;;;;;;;13.45;8.25;;;11.10;43.70;;;;;;5054656;28;20032;-71
2022/04/12 06:42:28;;;;;;;11.82;7.45;;;11.20;43.40;;;;;;5054591;28;20033;-72
2022/04/12 06:44:53;;;;;;;12.88;7.88;;;11.30;43.70;;;;;;5055289;28;20047;-71
2022/04/12 06:47:19;;;;;;;15.52;8.55;;;11.40;43.80;;;;;;5054569;28;20029;-71
2022/04/12 06:49:49;;;;;;;11.00;7.15;;;11.60;44.40;;;;;;5055270;28;20021;-71
2022/04/12 06:52:17;;;;;;;12.68;7.82;;;11.80;43.40;;;;;;5055096;28;20592;-71
2022/04/12 06:54:43;;;;;;;14.20;8.20;;;12.00;42.50;;;;;;5055034;28;20144;-71
2022/04/12 06:57:09;;;;;;;12.48;8.35;;;12.20;42.40;;;;;;5054816;28;20525;-71
2022/04/12 06:59:35;;;;;;;11.35;8.27;;;12.70;43.50;;;;;;5054411;28;20025;-71
2022/04/12 07:02:01;;;;;;;11.25;8.05;;;13.30;41.30;;;;;;5054932;28;20025;-72
2022/04/12 07:04:28;;;;;;;12.30;7.30;;;14.50;40.40;;;;;;5054017;28;20572;-72
2022/04/12 07:06:54;;;;;;;10.30;7.38;;;17.30;39.20;;;;;;5054775;28;20452;-72
2022/04/12 07:09:20;;;;;;;7.75;6.90;;;19.60;32.60;;;;;;5054308;28;20040;-72
2022/04/12 07:12:05;;;;;;;8.02;6.78;;;21.00;30.30;;;;;;5054825;28;20037;-71
2022/04/12 07:14:32;;;;;;;12.38;7.63;;;22.30;28.90;;;;;;5052570;28;20086;-73
2022/04/12 07:16:57;;;;;;;11.73;7.45;;;23.60;27.70;;;;;;5054562;28;20049;-71
2022/04/12 07:19:24;;;;;;;14.25;7.32;;;24.30;26.60;;;;;;5053971;28;20106;-72
2022/04/12 07:21:50;;;;;;;9.75;8.00;;;25.30;26.10;;;;;;5054793;28;20025;-71
2022/04/12 07:24:16;;;;;;;10.57;7.15;;;26.10;25.40;;;;;;5054582;28;20078;-71
2022/04/12 07:26:41;;;;;;;10.30;7.18;;;26.30;24.90;;;;;;5042039;28;20108;-72
2022/04/12 07:29:07;;;;;;;10.18;7.15;;;26.70;24.50;;;;;;5034699;28;20037;-71
2022/04/12 07:31:33;;;;;;;9.43;6.55;;;27.20;23.80;;;;;;5033927;28;20030;-72
2022/04/12 07:33:59;;;;;;;10.60;7.43;;;27.10;24.20;;;;;;5034265;28;20033;-72
2022/04/12 07:36:25;;;;;;;12.65;7.05;;;27.00;23.90;;;;;;5033784;28;20025;-72
2022/04/12 07:38:51;;;;;;;12.32;6.53;;;26.70;23.80;;;;;;5034182;28;20025;-71
2022/04/12 07:41:17;;;;;;;11.18;7.10;;;26.90;24.20;;;;;;5034539;28;20029;-71
2022/04/12 07:43:47;;;;;;;12.13;6.85;;;27.00;23.70;;;;;;5033571;28;20040;-71
2022/04/12 07:46:13;;;;;;;7.83;6.53;;;27.30;23.40;;;;;;5034727;28;20109;-71
2022/04/12 07:48:43;;;;;;;10.88;6.75;;;28.20;23.80;;;;;;5033734;28;20273;-71
2022/04/12 07:51:09;;;;;;;8.73;7.03;;;28.60;23.50;;;;;;5033579;28;20021;-72
2022/04/12 07:53:36;;;;;;;11.88;7.50;;;29.00;22.80;;;;;;5033566;28;20105;-72
2022/04/12 07:56:02;;;;;;;12.20;6.97;;;29.20;22.90;;;;;;5033926;28;20111;-71
2022/04/12 07:58:28;;;;;;;9.73;7.15;;;29.30;22.60;;;;;;5033520;28;20037;-71
2022/04/12 08:00:53;;;;;;;9.30;6.45;;;29.20;22.80;;;;;;5034262;28;20022;-72
2022/04/12 08:03:21;;;;;;;7.43;5.82;;;29.50;22.90;;;;;;5033684;28;20359;-73
2022/04/12 08:05:49;;;;;;;8.93;6.85;;;29.70;22.70;;;;;;5033385;28;20056;-70
2022/04/12 08:08:15;;;;;;;7.90;6.38;;;30.00;23.10;;;;;;5034043;28;20481;-73
2022/04/12 08:10:41;;;;;;;8.40;6.75;;;30.40;22.50;;;;;;5033288;28;20029;-72
2022/04/12 08:13:07;;;;;;;10.75;6.70;;;30.50;22.50;;;;;;5033958;28;20026;-71
2022/04/12 08:15:32;;;;;;;8.88;6.78;;;30.80;22.30;;;;;;5033009;28;20108;-72
2022/04/12 08:17:58;;;;;;;10.32;7.32;;;30.80;22.20;;;;;;5033965;28;20077;-71
2022/04/12 08:20:24;;;;;;;9.90;6.72;;;30.90;22.10;;;;;;5033199;28;20516;-70
2022/04/12 08:22:52;;;;;;;9.77;6.50;;;31.10;22.40;;;;;;5033593;28;20486;-70
2022/04/12 08:25:18;;;;;;;10.02;6.93;;;31.20;22.20;;;;;;5033578;28;20523;-71
2022/04/12 08:27:44;;;;;;;10.52;7.05;;;31.10;22.00;;;;;;5032770;28;20068;-72
2022/04/12 08:30:10;;;;;;;10.50;7.35;;;31.30;22.50;;;;;;5033327;28;20053;-72
2022/04/12 08:32:36;;;;;;;12.70;7.38;;;31.10;22.10;;;;;;5045577;28;20407;-71
2022/04/12 08:35:05;;;;;;;10.30;7.43;;;29.60;22.20;;;;;;5053085;28;20218;-72
2022/04/12 08:37:31;;;;;;;15.18;7.57;;;29.40;22.70;;;;;;5052315;28;20029;-71
2022/04/12 08:39:56;;;;;;;10.65;7.35;;;28.60;23.60;;;;;;5053014;28;20036;-72
2022/04/12 08:42:22;;;;;;;14.73;8.05;;;27.50;23.40;;;;;;5053256;28;20028;-71
2022/04/12 08:44:49;;;;;;;10.52;7.15;;;26.20;23.90;;;;;;5052639;28;20075;-72
2022/04/12 08:47:16;;;;;;;13.02;7.45;;;24.80;24.90;;;;;;5052941;28;20033;-71
2022/04/12 08:49:42;;;;;;;11.50;7.30;;;23.80;25.80;;;;;;5052434;28;20110;-71
2022/04/12 08:52:11;;;;;;;9.38;7.30;;;22.80;26.40;;;;;;5052853;28;20036;-71
2022/04/12 08:54:38;;;;;;;10.82;7.05;;;22.10;27.20;;;;;;5052436;28;20377;-72
2022/04/12 08:57:04;;;;;;;13.18;7.22;;;21.60;27.90;;;;;;5052757;28;20111;-71
2022/04/12 08:59:30;;;;;;;10.45;7.00;;;21.10;27.90;;;;;;5052411;28;20017;-72
2022/04/12 09:01:57;;;;;;;9.77;7.38;;;20.50;28.70;;;;;;5051635;28;20475;-72
2022/04/12 09:04:26;;;;;;;10.27;7.75;;;20.00;29.30;;;;;;5052755;28;20025;-71
2022/04/12 09:06:55;;;;;;;10.35;7.10;;;19.40;29.80;;;;;;5052182;28;20032;-72
2022/04/12 09:09:23;;;;;;;9.02;6.97;;;19.30;29.70;;;;;;5052371;28;20052;-72
2022/04/12 09:11:59;;;;;;;10.70;7.50;;;18.90;30.70;;;;;;5052066;28;20048;-73
2022/04/12 09:14:34;;;;;;;14.05;7.15;;;18.70;30.50;;;;;;5052629;28;20025;-73
2022/04/12 09:17:00;;;;;;;14.52;7.45;;;18.50;30.90;;;;;;5051287;28;20041;-72
2022/04/12 09:19:48;;;;;;;8.77;7.00;;;18.40;31.50;;;;;;5051218;28;20032;-72
2022/04/12 09:22:15;;;;;;;12.05;7.35;;;18.10;31.70;;;;;;5052530;28;20078;-72
2022/04/12 09:25:13;;;;;;;12.25;7.28;;;17.80;32.80;;;;;;5050561;28;20036;-72
2022/04/12 09:27:44;;;;;;;9.50;7.20;;;17.50;32.70;;;;;;5051817;28;20036;-72
2022/04/12 09:30:11;;;;;;;10.95;6.95;;;17.50;33.70;;;;;;5052164;28;20120;-71
2022/04/12 09:32:40;;;;;;;12.32;7.60;;;17.30;34.00;;;;;;5051456;28;20509;-72
2022/04/12 09:35:07;;;;;;;11.57;6.15;;;17.10;34.20;;;;;;5052112;28;20020;-72
2022/04/12 09:37:35;;;;;;;10.70;6.82;;;17.00;34.80;;;;;;5051397;28;20112;-72
2022/04/12 09:40:01;;;;;;;11.18;6.97;;;17.00;34.30;;;;;;5052113;28;20031;-72
2022/04/12 09:42:38;;;;;;;11.90;6.57;;;17.00;35.00;;;;;;5052022;28;20024;-72
2022/04/12 09:45:05;;;;;;;9.35;6.40;;;17.00;35.40;;;;;;5051521;28;20025;-71
2022/04/12 09:47:51;;;;;;;9.05;6.38;;;17.10;35.30;;;;;;5051215;28;20474;-71
2022/04/12 09:50:20;;;;;;;10.00;6.95;;;17.10;34.50;;;;;;5052430;28;20039;-71
2022/04/12 09:52:56;;;;;;;9.65;6.80;;;16.90;35.40;;;;;;5051456;28;20068;-72
2022/04/12 09:55:38;;;;;;;8.35;6.32;;;16.90;36.00;;;;;;5052020;28;20039;-72
2022/04/12 09:58:13;;;;;;;11.95;7.30;;;16.90;35.60;;;;;;5051082;28;20087;-73
2022/04/12 10:00:40;;;;;;;9.32;6.72;;;16.90;36.50;;;;;;5051083;28;20031;-72
2022/04/12 10:03:09;;;;;;;11.63;6.85;;;16.80;36.40;;;;;;5051766;28;20087;-72
2022/04/12 10:05:35;;;;;;;9.00;6.70;;;16.90;36.40;;;;;;5050866;28;20056;-72
2022/04/12 10:08:03;;;;;;;12.35;7.40;;;16.90;36.80;;;;;;5051708;28;20029;-71
2022/04/12 10:10:29;;;;;;;12.10;7.03;;;17.00;37.00;;;;;;5052162;28;20454;-74
2022/04/12 10:12:56;;;;;;;14.07;8.10;;;16.90;36.30;;;;;;5051149;28;20029;-72
2022/04/12 10:15:23;;;;;;;11.25;6.93;;;16.70;36.70;;;;;;5056156;28;20029;-72
2022/04/12 10:17:50;;;;;;;14.88;7.45;;;16.80;37.40;;;;;;5055409;28;20044;-73
2022/04/12 10:20:18;;;;;;;15.57;6.70;;;16.80;37.20;;;;;;5055923;28;20347;-73
2022/04/12 10:22:44;;;;;;;9.38;6.63;;;16.80;36.90;;;;;;5055271;28;20037;-71
2022/04/12 10:25:11;;;;;;;12.55;6.47;;;16.70;37.00;;;;;;5055848;28;20029;-72
2022/04/12 10:27:38;;;;;;;11.80;7.28;;;16.60;37.40;;;;;;5054770;28;20466;-72
2022/04/12 10:30:18;;;;;;;11.23;6.70;;;16.60;37.20;;;;;;5055526;28;20029;-73
2022/04/12 10:33:05;;;;;;;11.73;6.43;;;16.60;37.70;;;;;;5055454;28;20358;-74
2022/04/12 10:35:56;;;;;;;11.55;6.22;;;16.60;37.30;;;;;;5055346;28;20040;-73
2022/04/12 10:38:23;;;;;;;;;;;16.60;38.20;;;;;;5055938;28;20087;-73
2022/04/12 10:40:51;;;;;;;12.57;7.07;;;16.70;39.30;;;;;;5054833;28;20380;-72
2022/04/12 10:43:33;;;;;;;12.45;6.68;;;16.80;38.30;;;;;;5055376;28;20029;-72
2022/04/12 10:46:01;;;;;;;11.70;6.80;;;16.90;38.30;;;;;;5054965;28;20025;-72
2022/04/12 10:48:28;;;;;;;12.32;6.93;;;17.00;37.90;;;;;;5055589;28;20033;-72
2022/04/12 10:50:57;;;;;;;10.68;7.03;;;17.00;37.70;;;;;;5054731;28;20489;-73
2022/04/12 10:53:38;;;;;;;11.27;6.95;;;17.10;37.90;;;;;;5054895;28;20047;-72
2022/04/12 10:56:04;;;;;;;8.43;6.85;;;17.10;37.40;;;;;;5054944;28;20393;-73
2022/04/12 10:58:31;;;;;;;12.98;6.95;;;17.10;37.60;;;;;;5054834;28;20473;-72
2022/04/12 11:00:57;;;;;;;13.35;7.07;;;17.10;37.20;;;;;;5054390;28;20078;-72
2022/04/12 11:03:46;;;;;;;10.60;6.43;;;17.10;37.10;;;;;;5055012;28;20033;-72
2022/04/12 11:06:21;;;;;;;14.35;6.43;;;17.10;38.00;;;;;;5054332;28;20060;-72
2022/04/12 11:08:52;;;;;;;12.02;6.07;;;17.00;36.90;;;;;;5054412;28;20034;-73
2022/04/12 11:11:23;;;;;;;12.10;6.18;;;16.90;38.00;;;;;;5054464;28;20077;-73
2022/04/12 11:13:49;;;;;;;11.77;5.90;;;16.90;38.00;;;;;;5054238;28;20032;-72
2022/04/12 11:16:18;;;;;;;12.30;5.88;;;17.00;38.40;;;;;;5054887;28;20051;-72
2022/04/12 11:18:54;;;;;;;11.05;6.15;;;17.00;37.20;;;;;;5054136;28;20473;-71
2022/04/12 11:21:47;;;;;;;10.70;6.80;;;16.90;37.60;;;;;;5054894;28;20385;-72
2022/04/12 11:24:15;;;;;;;16.52;6.28;;;16.80;38.60;;;;;;5050920;28;20037;-72
2022/04/12 11:26:45;;;;;;;12.48;6.60;;;16.80;37.70;;;;;;5053002;28;20036;-72
2022/04/12 11:29:19;;;;;;;10.05;6.05;;;16.90;38.30;;;;;;5054812;28;20032;-72
2022/04/12 11:31:44;;;;;;;9.43;5.80;;;16.90;38.10;;;;;;5054113;28;20063;-71
2022/04/12 11:34:11;;;;;;;9.60;6.43;;;16.90;37.60;;;;;;5054471;28;20053;-72
2022/04/12 11:36:38;;;;;;;11.18;7.05;;;16.90;38.00;;;;;;5054416;28;20029;-72
2022/04/12 11:39:05;;;;;;;9.63;6.97;;;16.90;38.30;;;;;;5054379;28;20094;-72
2022/04/12 11:41:31;;;;;;;11.25;6.78;;;17.00;38.30;;;;;;5054030;28;20043;-72
2022/04/12 11:44:04;;;;;;;9.32;6.50;;;17.00;38.40;;;;;;5053658;28;20048;-72
2022/04/12 11:46:34;;;;;;;10.80;6.60;;;17.00;37.90;;;;;;5054627;28;20029;-72
2022/04/12 11:49:13;;;;;;;16.17;6.68;;;17.00;37.40;;;;;;5053636;28;20091;-73
2022/04/12 11:51:43;;;;;;;9.32;6.18;;;17.10;37.90;;;;;;5053963;28;20025;-73
2022/04/12 11:54:30;;;;;;;14.65;6.38;;;17.20;38.20;;;;;;5053913;28;20055;-72
2022/04/12 11:57:03;;;;;;;9.82;6.45;;;17.20;36.80;;;;;;5053012;28;20049;-72
2022/04/12 11:59:31;;;;;;;11.02;6.18;;;17.10;36.20;;;;;;5054160;28;20029;-72
2022/04/12 12:02:00;;;;;;;10.60;5.70;;;17.10;37.10;;;;;;5053578;28;20073;-72
2022/04/12 12:04:33;;;;;;;9.15;6.10;;;17.10;37.00;;;;;;5053906;28;20033;-72
2022/04/12 12:07:07;;;;;;;11.07;6.90;;;17.00;36.20;;;;;;5053430;28;20053;-72
2022/04/12 12:09:35;;;;;;;14.40;6.80;;;17.10;37.20;;;;;;5053997;28;20025;-72
2022/04/12 12:12:02;;;;;;;9.95;6.85;;;17.10;37.50;;;;;;5052974;28;20025;-72
2022/04/12 12:14:28;;;;;;;11.20;7.30;;;17.10;37.60;;;;;;5052377;28;20359;-72
2022/04/12 12:17:01;;;;;;;11.55;6.68;;;17.20;37.20;;;;;;5053076;28;20033;-72
2022/04/12 12:19:28;;;;;;;12.75;7.05;;;17.20;37.30;;;;;;5053668;28;20097;-73
2022/04/12 12:21:54;;;;;;;20.73;7.32;;;17.10;36.80;;;;;;5051847;28;20488;-71
2022/04/12 12:24:19;;;;;;;12.15;7.30;;;17.10;37.20;;;;;;5053658;28;20052;-72
2022/04/12 12:26:45;;;;;;;11.52;6.95;;;17.10;36.60;;;;;;5052919;28;20029;-72
2022/04/12 12:29:12;;;;;;;10.82;6.85;;;17.10;37.10;;;;;;5053205;28;20439;-72
2022/04/12 12:31:44;;;;;;;10.85;6.82;;;17.00;36.70;;;;;;5053799;28;20035;-72
2022/04/12 12:34:36;;;;;;;11.82;6.78;;;16.90;36.70;;;;;;5053037;28;20029;-72
2022/04/12 12:37:10;;;;;;;16.38;7.40;;;16.70;36.90;;;;;;5051119;28;20608;-71
2022/04/12 12:39:38;;;;;;;8.63;6.82;;;16.60;37.20;;;;;;5053388;28;20033;-72
2022/04/12 12:42:04;;;;;;;15.50;7.05;;;16.50;37.50;;;;;;5052671;28;20563;-72
2022/04/12 12:44:41;;;;;;;11.88;7.22;;;16.40;37.70;;;;;;5053369;28;20056;-72
2022/04/12 12:47:09;;;;;;;12.30;7.30;;;16.40;37.60;;;;;;5052696;28;20033;-72
2022/04/12 12:49:37;;;;;;;12.05;7.28;;;16.30;37.70;;;;;;5053054;28;20025;-71
2022/04/12 12:52:05;;;;;;;10.45;6.60;;;16.30;37.00;;;;;;5052621;28;20117;-73